createdAt,value
2023-01-22T00:57:42.319Z,66.60
2023-01-22T01:00:09.869Z,67.50
2023-01-22T01:02:59.667Z,71.40
2023-01-22T01:05:26.656Z,71.60
2023-01-22T01:07:53.323Z,74.70
2023-01-22T01:10:20.345Z,71.10
2023-01-22T01:12:47.308Z,79.20
2023-01-22T01:15:13.944Z,77.00
2023-01-22T01:17:40.608Z,73.40
2023-01-22T01:20:07.981Z,70.50
2023-01-22T01:22:34.758Z,73.40
2023-01-22T01:25:01.644Z,67.20
2023-01-22T01:27:31.732Z,70.80
2023-01-22T01:29:58.743Z,87.90
2023-01-22T01:32:25.560Z,71.40
2023-01-22T01:34:52.217Z,69.40
2023-01-22T01:37:18.848Z,74.80
2023-01-22T01:39:45.795Z,78.70
2023-01-22T01:42:13.972Z,68.00
2023-01-22T01:44:40.658Z,67.40
2023-01-22T01:47:11.804Z,78.40
2023-01-22T01:49:50.899Z,73.10
2023-01-22T01:52:18.240Z,64.60
2023-01-22T01:54:46.343Z,69.00
2023-01-22T01:57:15.093Z,69.60
2023-01-22T01:59:42.074Z,66.70
2023-01-22T02:02:08.971Z,69.30
2023-01-22T02:04:35.655Z,61.10
2023-01-22T02:07:04.415Z,64.70
2023-01-22T02:09:32.019Z,69.10
2023-01-22T02:11:58.722Z,65.20
2023-01-22T02:14:31.195Z,66.70
2023-01-22T02:17:20.829Z,62.70
2023-01-22T02:19:50.269Z,58.00
2023-01-22T02:22:21.629Z,61.40
2023-01-22T02:24:48.780Z,66.70
2023-01-22T02:27:15.626Z,67.60
2023-01-22T02:29:42.494Z,64.60
2023-01-22T02:32:10.226Z,65.10
2023-01-22T02:34:37.166Z,70.10
2023-01-22T02:37:03.932Z,68.90
2023-01-22T02:39:30.833Z,70.50
2023-01-22T02:41:58.275Z,70.80
2023-01-22T02:44:25.141Z,63.60
2023-01-22T02:46:51.932Z,61.80
2023-01-22T02:49:18.656Z,69.00
2023-01-22T02:51:45.622Z,68.70
2023-01-22T02:54:12.532Z,77.60
2023-01-22T02:56:39.317Z,66.50
2023-01-22T02:59:06.118Z,69.60
2023-01-22T03:01:33.214Z,72.20
2023-01-22T03:04:13.590Z,69.40
2023-01-22T03:06:42.609Z,65.70
2023-01-22T03:09:10.023Z,68.50
2023-01-22T03:11:37.657Z,66.70
2023-01-22T03:14:29.452Z,66.10
2023-01-22T03:17:14.789Z,62.90
2023-01-22T03:20:00.177Z,59.40
2023-01-22T03:22:27.130Z,58.50
2023-01-22T03:24:53.890Z,59.90
2023-01-22T03:27:24.195Z,55.80
2023-01-22T03:29:50.925Z,60.90
2023-01-22T03:32:18.877Z,60.10
2023-01-22T03:34:45.623Z,65.00
2023-01-22T03:37:15.428Z,57.30
2023-01-22T03:39:43.888Z,48.40
2023-01-22T03:42:14.828Z,50.30
2023-01-22T03:44:41.512Z,46.60
2023-01-22T03:47:08.539Z,48.70
2023-01-22T03:49:35.321Z,44.10
2023-01-22T03:52:03.864Z,42.90
2023-01-22T03:54:30.597Z,43.50
2023-01-22T03:56:57.774Z,44.00
2023-01-22T03:59:28.787Z,34.90
2023-01-22T04:01:55.807Z,42.70
2023-01-22T04:04:22.505Z,40.90
2023-01-22T04:06:49.989Z,38.10
2023-01-22T04:09:16.885Z,44.80
2023-01-22T04:11:47.470Z,39.90
2023-01-22T04:14:15.535Z,35.10
2023-01-22T04:16:59.797Z,38.20
2023-01-22T04:19:39.613Z,34.10
2023-01-22T04:22:18.802Z,32.00
2023-01-22T04:24:47.801Z,31.50
2023-01-22T04:27:14.495Z,34.90
2023-01-22T04:29:41.329Z,30.00
2023-01-22T04:32:08.365Z,32.00
2023-01-22T04:35:00.372Z,29.60
2023-01-22T04:37:37.419Z,27.00
2023-01-22T04:40:05.684Z,31.20
2023-01-22T04:42:34.873Z,28.00
2023-01-22T04:45:02.795Z,24.70
2023-01-22T04:47:30.555Z,33.00
2023-01-22T04:49:57.264Z,24.80
2023-01-22T04:52:23.932Z,27.20
2023-01-22T04:54:52.091Z,27.70
2023-01-22T04:57:19.015Z,33.40
2023-01-22T04:59:46.424Z,31.70
2023-01-22T05:02:13.298Z,22.70
2023-01-22T05:04:40.129Z,26.60
2023-01-22T05:07:07.747Z,29.60
2023-01-22T05:09:34.389Z,31.70
2023-01-22T05:12:01.423Z,33.30
2023-01-22T05:14:32.839Z,36.10
2023-01-22T05:17:01.103Z,34.70
2023-01-22T05:19:27.755Z,28.10
2023-01-22T05:21:55.099Z,29.20
2023-01-22T05:24:21.770Z,25.50
2023-01-22T05:26:49.304Z,32.20
2023-01-22T05:29:26.069Z,28.60
2023-01-22T05:32:15.847Z,23.00
2023-01-22T05:34:47.805Z,37.10
2023-01-22T05:37:14.548Z,36.60
2023-01-22T05:39:41.292Z,43.60
2023-01-22T05:42:13.839Z,40.60
2023-01-22T05:44:41.524Z,34.90
2023-01-22T05:47:09.510Z,30.90
2023-01-22T05:49:50.209Z,38.60
2023-01-22T05:52:16.936Z,38.60
2023-01-22T05:54:44.734Z,37.10
2023-01-22T05:57:11.851Z,41.40
2023-01-22T05:59:39.110Z,42.70
2023-01-22T06:02:07.693Z,39.10
2023-01-22T06:04:36.576Z,39.30
2023-01-22T06:07:07.572Z,41.20
2023-01-22T06:09:34.801Z,36.90
2023-01-22T06:12:01.517Z,38.80
2023-01-22T06:14:28.263Z,31.90
2023-01-22T06:16:56.590Z,37.70
2023-01-22T06:19:32.248Z,41.30
2023-01-22T06:21:58.979Z,36.90
2023-01-22T06:24:31.133Z,42.80
2023-01-22T06:26:58.382Z,39.00
2023-01-22T06:29:31.462Z,35.50
2023-01-22T06:31:58.358Z,34.40
2023-01-22T06:34:26.181Z,33.60
2023-01-22T06:36:52.847Z,34.80
2023-01-22T06:39:19.935Z,44.60
2023-01-22T06:41:57.381Z,38.30
2023-01-22T06:44:24.078Z,34.70
2023-01-22T06:46:51.803Z,38.30
2023-01-22T06:49:23.082Z,38.00
2023-01-22T06:51:49.924Z,37.50
2023-01-22T06:54:17.764Z,36.00
2023-01-22T06:56:44.440Z,36.40
2023-01-22T06:59:12.327Z,39.60
2023-01-22T07:01:39.534Z,32.50
2023-01-22T07:04:06.349Z,34.00
2023-01-22T07:06:33.112Z,34.90
2023-01-22T07:08:59.753Z,35.20
2023-01-22T07:11:26.640Z,38.80
2023-01-22T07:13:53.400Z,36.00
2023-01-22T07:16:20.242Z,35.30
2023-01-22T07:18:46.980Z,38.80
2023-01-22T07:21:13.832Z,33.20
2023-01-22T07:23:42.051Z,34.80
2023-01-22T07:26:08.843Z,34.30
2023-01-22T07:28:35.716Z,37.90
2023-01-22T07:31:03.781Z,38.40
2023-01-22T07:33:30.572Z,38.10
2023-01-22T07:35:57.416Z,36.20
2023-01-22T07:38:24.558Z,42.30
2023-01-22T07:40:51.400Z,33.20
2023-01-22T07:43:18.164Z,34.30
2023-01-22T07:45:45.014Z,31.90
2023-01-22T07:48:12.624Z,37.30
2023-01-22T07:50:40.336Z,38.10
2023-01-22T07:53:07.928Z,30.50
2023-01-22T07:55:34.721Z,45.60
2023-01-22T07:58:03.824Z,37.00
2023-01-22T08:00:31.185Z,30.70
2023-01-22T08:02:57.923Z,33.70
2023-01-22T08:05:24.743Z,32.20
2023-01-22T08:07:51.508Z,43.20
2023-01-22T08:10:18.633Z,38.00
2023-01-22T08:12:46.631Z,41.10
2023-01-22T08:15:13.573Z,39.80
2023-01-22T08:17:40.423Z,37.50
2023-01-22T08:20:07.816Z,38.60
2023-01-22T08:22:34.465Z,45.90
2023-01-22T08:25:01.116Z,50.80
2023-01-22T08:27:27.792Z,42.60
2023-01-22T08:29:55.290Z,49.10
2023-01-22T08:32:22.140Z,40.90
2023-01-22T08:34:48.864Z,40.00
2023-01-22T08:37:15.898Z,44.70
2023-01-22T08:39:42.526Z,41.30
2023-01-22T08:42:09.191Z,44.10
2023-01-22T08:44:35.834Z,44.80
2023-01-22T08:47:02.514Z,48.20
2023-01-22T08:49:30.925Z,51.40
2023-01-22T08:51:57.735Z,51.50
2023-01-22T08:54:24.559Z,61.60
2023-01-22T08:56:51.321Z,46.20
2023-01-22T08:59:18.050Z,60.90
2023-01-22T09:01:44.695Z,61.30
2023-01-22T09:04:11.445Z,51.40
2023-01-22T09:06:38.434Z,61.90
2023-01-22T09:09:06.072Z,64.20
2023-01-22T09:11:32.927Z,57.10
2023-01-22T09:13:59.732Z,55.80
2023-01-22T09:16:27.395Z,50.70
2023-01-22T09:18:54.074Z,47.50
2023-01-22T09:21:20.831Z,39.40
2023-01-22T09:23:47.473Z,40.10
2023-01-22T09:26:14.206Z,37.60
2023-01-22T09:28:40.904Z,41.20
2023-01-22T09:31:07.874Z,44.40
2023-01-22T09:33:34.514Z,41.80
2023-01-22T09:36:08.407Z,47.50
2023-01-22T09:38:35.039Z,49.60
2023-01-22T09:41:02.965Z,42.80
2023-01-22T09:43:32.253Z,47.10
2023-01-22T09:46:05.117Z,41.20
2023-01-22T09:48:37.304Z,36.30
2023-01-22T09:51:04.366Z,42.60
2023-01-22T09:53:37.166Z,55.90
2023-01-22T09:56:08.012Z,45.90
2023-01-22T09:58:34.691Z,48.20
2023-01-22T10:01:07.528Z,41.10
2023-01-22T10:03:53.819Z,47.50
2023-01-22T10:06:22.911Z,46.90
2023-01-22T10:09:08.668Z,40.80
2023-01-22T10:11:36.788Z,44.80
2023-01-22T10:14:03.498Z,36.40
2023-01-22T10:16:30.244Z,33.90
2023-01-22T10:19:26.463Z,36.80
2023-01-22T10:21:59.889Z,32.90
2023-01-22T10:24:26.795Z,40.20
2023-01-22T10:26:54.747Z,41.50
2023-01-22T10:29:26.379Z,44.60
2023-01-22T10:31:55.356Z,42.40
2023-01-22T10:34:30.875Z,39.60
2023-01-22T10:37:00.767Z,32.80
2023-01-22T10:39:27.396Z,45.80
2023-01-22T10:42:00.828Z,45.80
2023-01-22T10:44:27.798Z,45.00
2023-01-22T10:46:55.014Z,37.30
2023-01-22T10:49:26.244Z,33.90
2023-01-22T10:51:56.920Z,39.90
2023-01-22T10:54:30.127Z,41.90
2023-01-22T10:57:22.901Z,31.10
2023-01-22T10:59:51.138Z,31.60
2023-01-22T11:02:22.988Z,32.40
2023-01-22T11:04:49.783Z,33.40
2023-01-22T11:07:20.162Z,34.30
2023-01-22T11:09:49.759Z,36.80
2023-01-22T11:12:21.735Z,31.00
2023-01-22T11:14:51.589Z,29.60
2023-01-22T11:17:22.279Z,36.10
2023-01-22T11:19:55.790Z,35.20
2023-01-22T11:22:26.244Z,36.40
2023-01-22T11:24:53.162Z,37.30
2023-01-22T11:27:43.019Z,34.20
2023-01-22T11:30:21.318Z,32.80
2023-01-22T11:33:01.039Z,36.90
2023-01-22T11:35:58.616Z,37.90
2023-01-22T11:38:36.376Z,39.90
2023-01-22T11:41:18.267Z,37.40
2023-01-22T11:44:06.885Z,33.20
2023-01-22T11:46:54.996Z,41.20
2023-01-22T11:49:48.533Z,46.60
2023-01-22T11:52:22.701Z,47.00
2023-01-22T11:55:01.250Z,53.50
2023-01-22T11:57:34.100Z,46.40
2023-01-22T12:00:04.892Z,47.10
2023-01-22T12:02:55.516Z,53.60
2023-01-22T12:05:32.100Z,52.00
2023-01-22T12:08:12.987Z,40.70
2023-01-22T12:10:39.788Z,46.00
2023-01-22T12:13:18.937Z,33.70
2023-01-22T12:16:07.096Z,34.70
2023-01-22T12:19:01.764Z,33.90
2023-01-22T12:22:02.866Z,30.70
2023-01-22T12:24:33.575Z,29.90
2023-01-22T12:27:03.391Z,33.40
2023-01-22T12:29:38.589Z,34.20
2023-01-22T12:32:09.249Z,33.60
2023-01-22T12:34:50.783Z,36.20
2023-01-22T12:37:20.325Z,32.80
2023-01-22T12:40:19.124Z,35.30
2023-01-22T12:43:12.112Z,63.60
2023-01-22T12:45:47.007Z,46.00
2023-01-22T12:48:31.294Z,40.20
2023-01-22T12:50:58.345Z,36.20
2023-01-22T12:53:35.844Z,31.10
2023-01-22T12:56:07.466Z,26.00
2023-01-22T12:58:38.752Z,31.60
2023-01-22T13:01:11.727Z,25.60
2023-01-22T13:03:39.601Z,30.50
2023-01-22T13:06:18.637Z,35.60
2023-01-22T13:08:45.557Z,31.00
2023-01-22T13:11:14.004Z,30.10
2023-01-22T13:13:51.037Z,31.50
2023-01-22T13:16:20.310Z,26.30
2023-01-22T13:18:55.038Z,29.00
2023-01-22T13:21:29.826Z,28.60
2023-01-22T13:24:05.018Z,32.70
2023-01-22T13:26:33.993Z,26.50
2023-01-22T13:29:27.186Z,27.00
2023-01-22T13:32:05.225Z,30.50
2023-01-22T13:34:33.264Z,27.60
2023-01-22T13:36:59.977Z,33.40
2023-01-22T13:39:30.335Z,33.80
2023-01-22T13:42:01.067Z,34.20
2023-01-22T13:44:35.835Z,27.10
2023-01-22T13:47:02.632Z,29.90
2023-01-22T14:54:02.868Z,28.70
2023-01-22T14:56:29.547Z,29.80
2023-01-22T14:58:56.314Z,37.10
2023-01-22T16:12:03.741Z,32.20
2023-01-22T16:14:31.849Z,30.50
2023-01-22T16:16:58.595Z,30.90
2023-01-22T16:19:25.267Z,28.70
2023-01-22T16:21:53.175Z,38.20
2023-01-22T16:24:19.819Z,35.70
2023-01-22T16:26:46.534Z,32.00
2023-01-22T16:29:13.412Z,27.90
2023-01-22T16:31:40.161Z,28.10
2023-01-22T16:34:12.147Z,29.20
2023-01-22T16:36:39.020Z,36.20
2023-01-22T16:39:06.061Z,33.70
2023-01-22T16:41:34.088Z,26.70
2023-01-22T16:44:05.846Z,32.70
2023-01-22T16:46:33.014Z,35.70
2023-01-22T16:49:04.609Z,32.30
2023-01-22T16:51:36.748Z,32.10
2023-01-22T16:54:05.006Z,29.40
2023-01-22T16:56:32.622Z,34.50
2023-01-22T16:58:59.895Z,34.00
2023-01-22T17:01:28.434Z,26.60
2023-01-22T17:03:55.381Z,29.10
2023-01-22T17:06:23.469Z,34.50
2023-01-22T17:08:51.032Z,29.80
2023-01-22T17:11:17.914Z,31.40
2023-01-22T17:13:44.959Z,31.60
2023-01-22T17:16:11.876Z,33.60
2023-01-22T17:18:38.915Z,30.10
2023-01-22T17:21:06.798Z,29.60
2023-01-22T17:23:33.743Z,32.30
2023-01-22T17:26:05.207Z,36.10
2023-01-22T17:30:58.763Z,34.10
2023-01-22T17:33:25.663Z,48.00
2023-01-22T17:35:57.894Z,40.10
2023-01-22T17:38:24.965Z,38.60
2023-01-22T17:40:51.666Z,43.10
2023-01-22T17:43:18.319Z,36.90
2023-01-22T17:45:45.197Z,41.90
2023-01-22T17:48:11.898Z,37.00
2023-01-22T17:50:38.615Z,32.70
2023-01-22T17:53:05.390Z,37.80
2023-01-22T17:55:32.734Z,36.40
2023-01-22T17:57:59.864Z,38.00
2023-01-22T18:00:26.546Z,36.40
2023-01-22T18:02:53.225Z,34.00
2023-01-22T18:05:20.440Z,34.00
2023-01-22T18:07:47.338Z,36.00
2023-01-22T18:10:14.073Z,32.20
2023-01-22T18:12:40.773Z,36.00
2023-01-22T18:15:08.506Z,35.40
2023-01-22T18:17:35.269Z,34.90
2023-01-22T18:20:03.489Z,34.10
2023-01-22T18:22:30.582Z,37.20
2023-01-22T18:24:59.149Z,37.30
2023-01-22T18:27:25.942Z,43.30
2023-01-22T18:29:52.647Z,50.20
2023-01-22T18:32:19.664Z,39.70
2023-01-22T18:34:46.325Z,56.60
2023-01-22T18:37:13.212Z,58.60
2023-01-22T18:39:40.777Z,42.30
2023-01-22T18:42:07.549Z,35.30
2023-01-22T18:44:34.291Z,25.50
2023-01-22T18:47:01.769Z,34.20
2023-01-22T18:49:29.086Z,29.80
2023-01-22T18:51:59.249Z,32.70
2023-01-22T18:54:26.092Z,34.40
2023-01-22T18:56:52.766Z,40.80
2023-01-22T18:59:19.495Z,62.30
2023-01-22T19:01:51.384Z,40.60
2023-01-22T19:04:21.895Z,35.00
2023-01-22T19:06:52.880Z,32.90
2023-01-22T19:09:20.229Z,36.40
2023-01-22T19:11:47.705Z,32.40
2023-01-22T19:14:16.498Z,40.10
2023-01-22T19:16:44.901Z,34.70
2023-01-22T19:19:13.512Z,41.80
2023-01-22T19:21:41.352Z,37.70
2023-01-22T19:24:08.852Z,42.70
2023-01-22T19:26:36.491Z,36.80
2023-01-22T19:29:05.751Z,37.80
2023-01-22T19:31:34.204Z,40.40
2023-01-22T19:34:01.333Z,46.00
2023-01-22T19:36:29.664Z,39.60
2023-01-22T19:38:57.040Z,38.10
2023-01-22T19:41:24.373Z,33.10
2023-01-22T19:43:52.547Z,32.30
2023-01-22T19:46:19.534Z,34.20
2023-01-22T19:48:46.309Z,29.40
2023-01-22T19:51:14.840Z,35.10
2023-01-22T19:53:41.706Z,28.70
2023-01-22T19:56:35.347Z,31.20
2023-01-22T19:59:05.998Z,27.20
2023-01-22T20:01:33.660Z,27.80
2023-01-22T20:04:00.663Z,32.90
2023-01-22T20:06:28.195Z,33.70
2023-01-22T20:08:55.259Z,33.30
2023-01-22T20:11:21.902Z,35.20
2023-01-22T20:13:48.962Z,27.50
2023-01-22T20:16:20.413Z,30.40
2023-01-22T20:18:47.838Z,28.30
2023-01-22T20:21:15.504Z,26.90
2023-01-22T20:23:42.218Z,30.20
2023-01-22T20:26:09.711Z,26.00
2023-01-22T20:28:36.758Z,29.60
2023-01-22T20:31:04.980Z,32.50
2023-01-22T20:33:31.923Z,29.90
2023-01-22T20:36:06.967Z,27.90
2023-01-22T20:38:33.843Z,31.50
2023-01-22T20:41:01.935Z,33.10
2023-01-22T20:43:28.888Z,38.00
2023-01-22T20:46:00.787Z,27.90
2023-01-22T20:48:28.641Z,32.70
2023-01-22T20:50:55.594Z,32.90
2023-01-22T20:53:22.910Z,28.00
2023-01-22T20:56:04.103Z,40.00
2023-01-22T20:58:31.092Z,33.10
2023-01-22T21:01:14.603Z,30.20
2023-01-22T21:03:42.215Z,24.30
2023-01-22T21:06:14.356Z,30.10
2023-01-22T21:08:41.838Z,32.80
2023-01-22T21:11:10.739Z,24.70
2023-01-22T21:13:37.544Z,25.70
2023-01-22T21:16:12.449Z,29.40
2023-01-22T21:18:44.418Z,27.30
2023-01-22T21:21:12.653Z,27.50
2023-01-22T21:23:46.504Z,31.60
2023-01-22T21:26:15.624Z,25.00
2023-01-22T21:28:43.488Z,28.80
2023-01-22T21:31:15.054Z,31.70
2023-01-22T21:36:09.209Z,30.20
2023-01-22T21:38:36.201Z,32.30
2023-01-22T21:41:05.112Z,33.90
2023-01-22T21:43:50.918Z,28.90
2023-01-22T21:46:25.184Z,33.60
2023-01-22T21:48:53.473Z,32.70
2023-01-22T21:51:20.305Z,31.40
2023-01-22T21:53:47.004Z,25.50
2023-01-22T21:56:13.700Z,29.00
2023-01-22T21:58:45.102Z,25.20
